createdAt,value
2019-03-16T00:01:20.795Z,8.80
2019-03-16T00:04:09.719Z,8.80
2019-03-16T00:06:58.503Z,8.80
2019-03-16T00:09:47.091Z,8.70
2019-03-16T00:12:36.023Z,8.70
2019-03-16T00:15:24.727Z,8.60
2019-03-16T00:18:13.931Z,8.70
2019-03-16T00:21:02.994Z,8.70
2019-03-16T00:23:51.582Z,8.70
2019-03-16T00:26:40.465Z,8.80
2019-03-16T00:29:29.630Z,8.80
2019-03-16T00:32:19.208Z,8.80
2019-03-16T00:35:08.318Z,8.80
2019-03-16T00:37:57.240Z,8.80
2019-03-16T00:40:46.721Z,8.70
2019-03-16T00:43:16.892Z,8.60
2019-03-16T00:45:47.006Z,8.60
2019-03-16T00:48:36.408Z,8.60
2019-03-16T00:51:25.591Z,8.50
2019-03-16T00:54:14.503Z,8.50
2019-03-16T00:57:04.478Z,8.40
2019-03-16T00:59:54.041Z,8.20
2019-03-16T01:02:42.687Z,8.10
2019-03-16T01:05:31.340Z,8.10
2019-03-16T01:08:19.812Z,8.00
2019-03-16T01:11:08.791Z,8.00
2019-03-16T01:13:57.562Z,8.00
2019-03-16T01:16:46.429Z,8.00
2019-03-16T01:19:35.399Z,8.00
2019-03-16T01:22:24.639Z,8.00
2019-03-16T01:25:10.229Z,8.00
2019-03-16T01:27:58.705Z,8.00
2019-03-16T01:30:47.878Z,7.90
2019-03-16T01:33:37.008Z,7.90
2019-03-16T01:36:26.613Z,7.90
2019-03-16T01:39:15.472Z,7.90
2019-03-16T01:42:05.046Z,7.90
2019-03-16T01:44:54.135Z,7.90
2019-03-16T01:47:42.946Z,7.90
2019-03-16T01:50:32.249Z,7.90
2019-03-16T01:53:21.234Z,7.90
2019-03-16T01:56:10.335Z,7.90
2019-03-16T01:58:59.794Z,7.90
2019-03-16T02:01:49.502Z,7.90
2019-03-16T02:04:39.000Z,7.90
2019-03-16T02:07:28.384Z,7.80
2019-03-16T02:10:17.026Z,7.90
2019-03-16T02:13:06.238Z,7.80
2019-03-16T02:15:55.453Z,7.80
2019-03-16T02:18:45.436Z,7.80
2019-03-16T02:21:34.775Z,7.80
2019-03-16T02:24:23.792Z,7.70
2019-03-16T02:27:12.592Z,7.70
2019-03-16T02:30:01.478Z,7.70
2019-03-16T02:32:50.712Z,7.70
2019-03-16T02:35:20.608Z,7.70
2019-03-16T02:38:09.743Z,7.70
2019-03-16T02:40:58.809Z,7.70
2019-03-16T02:43:48.065Z,7.70
2019-03-16T02:46:37.312Z,7.70
2019-03-16T02:49:26.264Z,7.70
2019-03-16T02:52:15.079Z,7.70
2019-03-16T02:55:03.788Z,7.70
2019-03-16T02:57:53.053Z,7.70
2019-03-16T03:00:41.807Z,7.70
2019-03-16T03:03:30.831Z,7.70
2019-03-16T03:06:19.528Z,7.60
2019-03-16T03:09:09.792Z,7.60
2019-03-16T03:11:59.246Z,7.60
2019-03-16T03:14:48.639Z,7.60
2019-03-16T03:17:37.243Z,7.60
2019-03-16T03:20:25.912Z,7.60
2019-03-16T03:23:05.406Z,7.60
2019-03-16T03:25:54.060Z,7.60
2019-03-16T03:28:42.667Z,7.60
2019-03-16T03:31:31.833Z,7.60
2019-03-16T03:34:20.577Z,7.60
2019-03-16T03:37:09.529Z,7.70
2019-03-16T03:39:58.447Z,7.70
2019-03-16T03:42:46.683Z,7.70
2019-03-16T03:45:35.047Z,7.70
2019-03-16T03:48:23.895Z,7.70
2019-03-16T03:51:12.888Z,7.70
2019-03-16T03:54:01.750Z,7.70
2019-03-16T03:56:50.704Z,7.70
2019-03-16T03:59:40.295Z,7.70
2019-03-16T04:02:28.999Z,7.70
2019-03-16T04:05:18.274Z,7.70
2019-03-16T04:08:07.223Z,7.70
2019-03-16T04:10:56.158Z,7.70
2019-03-16T04:13:45.445Z,7.70
2019-03-16T04:16:34.391Z,7.70
2019-03-16T04:19:22.975Z,7.70
2019-03-16T04:22:11.977Z,7.70
2019-03-16T04:25:00.574Z,7.70
2019-03-16T04:27:49.156Z,7.70
2019-03-16T04:30:38.030Z,7.70
2019-03-16T04:33:27.288Z,7.80
2019-03-16T04:36:16.857Z,7.80
2019-03-16T04:39:07.005Z,7.80
2019-03-16T04:41:55.953Z,7.80
2019-03-16T04:44:44.968Z,7.80
2019-03-16T04:47:34.016Z,7.80
2019-03-16T04:50:22.772Z,7.80
2019-03-16T04:53:11.608Z,7.80
2019-03-16T04:56:00.705Z,7.80
2019-03-16T04:58:51.673Z,7.80
2019-03-16T05:01:40.578Z,7.80
2019-03-16T05:04:41.679Z,7.80
2019-03-16T05:07:15.091Z,7.80
2019-03-16T05:10:07.047Z,7.80
2019-03-16T05:12:54.637Z,7.80
2019-03-16T05:15:43.628Z,7.80
2019-03-16T05:18:32.925Z,7.80
2019-03-16T05:21:22.085Z,7.80
2019-03-16T05:24:10.502Z,7.70
2019-03-16T05:26:59.077Z,7.80
2019-03-16T05:29:47.598Z,7.80
2019-03-16T05:32:35.892Z,7.70
2019-03-16T05:35:24.509Z,7.70
2019-03-16T05:38:13.812Z,7.70
2019-03-16T05:41:02.538Z,7.70
2019-03-16T05:43:51.757Z,7.70
2019-03-16T05:46:41.141Z,7.60
2019-03-16T05:49:29.867Z,7.70
2019-03-16T05:52:18.512Z,7.70
2019-03-16T05:55:07.750Z,7.70
2019-03-16T05:57:56.810Z,7.70
2019-03-16T06:00:45.745Z,7.60
2019-03-16T06:03:34.344Z,7.60
2019-03-16T06:06:23.628Z,7.60
2019-03-16T06:09:14.389Z,7.60
2019-03-16T06:12:02.952Z,7.60
2019-03-16T06:14:52.100Z,7.60
2019-03-16T06:17:41.562Z,7.60
2019-03-16T06:20:30.370Z,7.60
2019-03-16T06:23:19.293Z,7.60
2019-03-16T06:26:08.282Z,7.60
2019-03-16T06:28:56.814Z,7.60
2019-03-16T06:31:45.809Z,7.70
2019-03-16T06:34:34.520Z,7.60
2019-03-16T06:37:17.877Z,7.70
2019-03-16T06:39:48.068Z,7.70
2019-03-16T06:42:18.216Z,7.70
2019-03-16T06:44:48.271Z,7.80
2019-03-16T06:47:18.368Z,7.80
2019-03-16T06:49:48.567Z,7.80
2019-03-16T06:52:18.573Z,7.80
2019-03-16T06:54:49.058Z,7.80
2019-03-16T06:57:19.172Z,7.90
2019-03-16T06:59:49.284Z,7.90
2019-03-16T07:02:19.325Z,7.90
2019-03-16T07:05:09.842Z,7.90
2019-03-16T07:07:58.638Z,7.90
2019-03-16T07:10:47.616Z,8.00
2019-03-16T07:13:37.196Z,8.10
2019-03-16T07:16:26.231Z,8.10
2019-03-16T07:19:15.369Z,8.20
2019-03-16T07:22:03.761Z,8.40
2019-03-16T07:24:35.580Z,8.50
2019-03-16T07:27:26.383Z,8.50
2019-03-16T07:30:15.737Z,8.60
2019-03-16T07:33:04.972Z,8.70
2019-03-16T07:35:54.032Z,8.80
2019-03-16T07:38:43.457Z,8.90
2019-03-16T07:41:33.401Z,9.10
2019-03-16T07:44:22.808Z,9.20
2019-03-16T07:47:11.836Z,9.20
2019-03-16T07:49:43.816Z,9.30
2019-03-16T07:52:14.194Z,9.40
2019-03-16T07:54:44.350Z,9.40
2019-03-16T07:57:14.441Z,9.50
2019-03-16T08:00:03.434Z,9.50
2019-03-16T08:02:52.276Z,9.60
2019-03-16T08:05:41.092Z,9.70
2019-03-16T08:08:30.526Z,9.70
2019-03-16T08:11:19.082Z,9.80
2019-03-16T08:14:08.346Z,9.80
2019-03-16T08:16:57.078Z,9.80
2019-03-16T08:19:45.942Z,9.90
2019-03-16T08:22:35.607Z,9.90
2019-03-16T08:25:25.353Z,9.90
2019-03-16T08:28:14.310Z,10.00
2019-03-16T08:31:03.425Z,10.00
2019-03-16T08:33:52.352Z,9.90
2019-03-16T08:36:41.110Z,9.90
2019-03-16T08:39:30.427Z,9.90
2019-03-16T08:42:19.797Z,9.90
2019-03-16T08:45:09.258Z,9.90
2019-03-16T08:47:58.931Z,9.90
2019-03-16T08:50:47.901Z,10.00
2019-03-16T08:53:37.669Z,10.00
2019-03-16T08:56:27.195Z,10.00
2019-03-16T08:59:16.650Z,10.00
2019-03-16T09:02:05.911Z,10.00
2019-03-16T09:04:55.456Z,10.00
2019-03-16T09:07:44.813Z,9.90
2019-03-16T09:10:33.872Z,10.00
2019-03-16T09:13:23.371Z,10.00
2019-03-16T09:16:12.512Z,10.00
2019-03-16T09:19:01.899Z,10.10
2019-03-16T09:21:50.760Z,10.10
2019-03-16T09:24:40.546Z,10.10
2019-03-16T09:27:31.441Z,10.10
2019-03-16T09:30:21.728Z,10.10
2019-03-16T09:33:11.401Z,10.10
2019-03-16T09:36:00.353Z,10.10
2019-03-16T09:38:49.800Z,10.10
2019-03-16T09:41:39.437Z,10.20
2019-03-16T09:44:28.487Z,10.20
2019-03-16T09:47:17.329Z,10.30
2019-03-16T09:50:07.513Z,10.60
2019-03-16T09:52:38.474Z,10.80
2019-03-16T09:55:27.821Z,10.90
2019-03-16T09:58:16.732Z,11.00
2019-03-16T10:01:05.528Z,11.10
2019-03-16T10:03:55.229Z,11.10
2019-03-16T10:06:44.291Z,11.00
2019-03-16T10:09:33.084Z,11.00
2019-03-16T10:12:21.778Z,11.00
2019-03-16T10:15:11.231Z,11.00
2019-03-16T10:18:00.244Z,11.10
2019-03-16T10:20:49.552Z,11.10
2019-03-16T10:23:38.691Z,11.10
2019-03-16T10:26:27.255Z,11.20
2019-03-16T10:29:16.503Z,11.20
2019-03-16T10:32:05.790Z,11.20
2019-03-16T10:34:55.309Z,11.10
2019-03-16T10:37:44.214Z,11.10
2019-03-16T10:40:33.933Z,11.10
2019-03-16T10:43:23.089Z,11.20
2019-03-16T10:46:12.290Z,11.20
2019-03-16T10:49:01.781Z,11.20
2019-03-16T10:51:51.051Z,11.20
2019-03-16T10:54:42.814Z,11.10
2019-03-16T10:57:30.885Z,11.00
2019-03-16T11:00:20.025Z,11.00
2019-03-16T11:03:09.705Z,11.00
2019-03-16T11:05:59.245Z,11.20
2019-03-16T11:08:48.723Z,11.30
2019-03-16T11:11:37.276Z,11.30
2019-03-16T11:14:26.867Z,11.30
2019-03-16T11:17:15.982Z,11.30
2019-03-16T11:20:05.652Z,11.20
2019-03-16T11:22:54.921Z,11.30
2019-03-16T11:25:43.668Z,11.30
2019-03-16T11:28:32.993Z,11.20
2019-03-16T11:31:22.068Z,11.20
2019-03-16T11:33:52.319Z,11.20
2019-03-16T11:36:41.376Z,11.20
2019-03-16T11:39:32.264Z,11.20
2019-03-16T11:42:20.488Z,11.20
2019-03-16T11:45:10.229Z,11.20
2019-03-16T11:47:59.043Z,11.20
2019-03-16T11:50:48.972Z,11.20
2019-03-16T11:53:37.577Z,11.20
2019-03-16T11:56:26.632Z,11.40
2019-03-16T11:59:21.703Z,11.50
2019-03-16T12:02:06.636Z,11.50
2019-03-16T12:04:55.906Z,11.40
2019-03-16T12:07:45.334Z,11.40
2019-03-16T12:10:34.440Z,11.30
2019-03-16T12:13:23.430Z,11.30
2019-03-16T12:15:53.947Z,11.30
2019-03-16T12:18:43.251Z,11.30
2019-03-16T12:21:32.544Z,11.30
2019-03-16T12:24:21.634Z,11.30
2019-03-16T12:27:11.133Z,11.30
2019-03-16T12:29:59.852Z,11.20
2019-03-16T12:32:49.251Z,11.30
2019-03-16T12:35:38.352Z,11.30
2019-03-16T12:38:27.647Z,11.30
2019-03-16T12:41:16.877Z,11.30
2019-03-16T12:44:06.465Z,11.30
2019-03-16T12:46:55.711Z,11.30
2019-03-16T12:49:44.831Z,11.30
2019-03-16T12:52:33.836Z,11.30
2019-03-16T12:55:23.094Z,11.30
2019-03-16T12:58:12.139Z,11.30
2019-03-16T13:01:01.426Z,11.30
2019-03-16T13:03:50.573Z,11.30
2019-03-16T13:06:39.977Z,11.30
2019-03-16T13:09:29.209Z,11.30
2019-03-16T13:12:18.508Z,11.40
2019-03-16T13:15:07.641Z,11.40
2019-03-16T13:17:56.945Z,11.40
2019-03-16T13:20:46.000Z,11.50
2019-03-16T13:23:35.145Z,11.50
2019-03-16T13:26:23.862Z,11.50
2019-03-16T13:29:13.169Z,11.50
2019-03-16T13:32:03.710Z,11.60
2019-03-16T13:34:52.936Z,11.60
2019-03-16T13:37:41.825Z,11.60
2019-03-16T13:40:30.748Z,11.50
2019-03-16T13:43:20.322Z,11.50
2019-03-16T13:46:09.636Z,11.50
2019-03-16T13:48:58.424Z,11.50
2019-03-16T13:51:47.593Z,11.50
2019-03-16T13:54:36.603Z,11.40
2019-03-16T13:57:25.473Z,11.40
2019-03-16T14:00:15.464Z,11.40
2019-03-16T14:03:04.658Z,11.40
2019-03-16T14:05:53.614Z,11.40
2019-03-16T14:08:43.359Z,11.40
2019-03-16T14:11:32.561Z,11.40
2019-03-16T14:14:09.822Z,11.50
2019-03-16T14:16:59.688Z,11.60
2019-03-16T14:19:48.700Z,11.60
2019-03-16T14:22:39.080Z,11.60
2019-03-16T14:25:27.998Z,11.70
2019-03-16T14:28:16.934Z,11.70
2019-03-16T14:31:05.951Z,11.70
2019-03-16T14:33:55.478Z,11.70
2019-03-16T14:36:44.484Z,11.60
2019-03-16T14:39:33.775Z,11.70
2019-03-16T14:42:24.260Z,11.60
2019-03-16T14:45:13.886Z,11.60
2019-03-16T14:48:03.869Z,12.00
2019-03-16T14:50:53.017Z,11.70
2019-03-16T14:53:42.254Z,11.80
2019-03-16T14:56:30.948Z,11.70
2019-03-16T14:59:20.165Z,11.60
2019-03-16T15:02:09.410Z,11.60
2019-03-16T15:04:58.724Z,11.60
2019-03-16T15:07:29.313Z,11.60
2019-03-16T15:10:17.878Z,11.60
2019-03-16T15:13:07.461Z,11.60
2019-03-16T15:15:56.910Z,11.60
2019-03-16T15:18:46.172Z,11.70
2019-03-16T15:21:35.864Z,11.70
2019-03-16T15:24:24.945Z,11.80
2019-03-16T15:27:15.845Z,11.80
2019-03-16T15:30:05.247Z,11.90
2019-03-16T15:32:54.101Z,11.90
2019-03-16T15:35:43.290Z,12.00
2019-03-16T15:38:32.829Z,11.90
2019-03-16T15:41:22.318Z,11.90
2019-03-16T15:44:11.539Z,11.80
2019-03-16T15:47:00.810Z,11.80
2019-03-16T15:49:50.041Z,11.80
2019-03-16T15:52:38.834Z,11.70
2019-03-16T15:55:27.765Z,11.80
2019-03-16T15:58:17.048Z,11.80
2019-03-16T16:01:05.918Z,11.80
2019-03-16T16:03:54.777Z,11.80
2019-03-16T16:06:44.202Z,11.80
2019-03-16T16:09:14.313Z,11.80
2019-03-16T16:12:03.238Z,11.70
2019-03-16T16:14:53.501Z,11.70
2019-03-16T16:17:42.896Z,11.70
2019-03-16T16:20:28.919Z,11.70
2019-03-16T16:23:17.991Z,11.60
2019-03-16T16:26:06.469Z,11.60
2019-03-16T16:28:55.577Z,11.60
2019-03-16T16:31:45.138Z,11.60
2019-03-16T16:34:35.737Z,11.60
2019-03-16T16:37:21.133Z,11.60
2019-03-16T16:40:11.685Z,11.60
2019-03-16T16:43:00.298Z,11.50
2019-03-16T16:45:49.652Z,11.60
2019-03-16T16:48:38.654Z,11.60
2019-03-16T16:51:27.908Z,11.60
2019-03-16T16:54:16.634Z,11.50
2019-03-16T16:57:06.646Z,11.50
2019-03-16T16:59:58.323Z,11.50
2019-03-16T17:02:46.274Z,11.50
2019-03-16T17:05:35.328Z,11.50
2019-03-16T17:08:23.883Z,11.50
2019-03-16T17:11:13.268Z,11.50
2019-03-16T17:14:02.045Z,11.50
2019-03-16T17:16:51.640Z,11.50
2019-03-16T17:19:40.402Z,11.50
2019-03-16T17:22:29.423Z,11.50
2019-03-16T17:25:00.050Z,11.50
2019-03-16T17:27:48.742Z,11.50
2019-03-16T17:30:37.841Z,11.40
2019-03-16T17:33:26.750Z,11.40
2019-03-16T17:36:16.235Z,11.40
2019-03-16T17:39:07.340Z,11.40
2019-03-16T17:41:56.521Z,11.30
2019-03-16T17:44:45.552Z,11.40
2019-03-16T17:47:34.349Z,11.40
2019-03-16T17:50:22.886Z,11.30
2019-03-16T17:53:11.768Z,11.30
2019-03-16T17:56:00.729Z,11.30
2019-03-16T17:58:50.184Z,11.30
2019-03-16T18:01:39.121Z,11.30
2019-03-16T18:04:28.301Z,11.20
2019-03-16T18:07:17.299Z,11.20
2019-03-16T18:10:06.703Z,11.20
2019-03-16T18:12:36.926Z,11.20
2019-03-16T18:15:26.613Z,11.20
2019-03-16T18:18:15.821Z,11.20
2019-03-16T18:21:05.294Z,11.20
2019-03-16T18:23:54.425Z,11.20
2019-03-16T18:26:43.957Z,11.20
2019-03-16T18:29:14.098Z,11.20
2019-03-16T18:32:08.132Z,11.20
2019-03-16T18:34:53.234Z,11.20
2019-03-16T18:37:42.024Z,11.20
2019-03-16T18:40:31.369Z,11.20
2019-03-16T18:43:20.758Z,11.20
2019-03-16T18:46:10.394Z,11.20
2019-03-16T18:48:59.352Z,11.20
2019-03-16T18:51:48.159Z,11.20
2019-03-16T18:54:37.045Z,11.20
2019-03-16T18:57:26.836Z,11.20
2019-03-16T19:00:16.034Z,11.20
2019-03-16T19:03:05.108Z,11.20
2019-03-16T19:05:54.177Z,11.20
2019-03-16T19:08:42.788Z,11.20
2019-03-16T19:11:32.133Z,11.20
2019-03-16T19:14:21.718Z,11.20
2019-03-16T19:17:11.982Z,11.20
2019-03-16T19:20:01.284Z,11.20
2019-03-16T19:22:50.419Z,11.20
2019-03-16T19:25:39.351Z,11.20
2019-03-16T19:28:28.575Z,11.20
2019-03-16T19:31:18.162Z,11.20
2019-03-16T19:34:07.448Z,11.10
2019-03-16T19:36:56.858Z,11.10
2019-03-16T19:39:46.413Z,11.10
2019-03-16T19:42:35.937Z,11.10
2019-03-16T19:45:25.614Z,11.10
2019-03-16T19:48:14.730Z,11.10
2019-03-16T19:51:04.487Z,11.10
2019-03-16T19:53:53.539Z,11.10
2019-03-16T19:56:42.325Z,11.10
2019-03-16T19:59:31.525Z,11.00
2019-03-16T20:02:20.904Z,11.10
2019-03-16T20:05:10.197Z,11.10
2019-03-16T20:07:59.759Z,11.10
2019-03-16T20:10:48.926Z,11.00
2019-03-16T20:13:38.330Z,11.00
2019-03-16T20:16:27.455Z,11.00
2019-03-16T20:19:17.240Z,11.00
2019-03-16T20:22:06.463Z,11.00
2019-03-16T20:24:56.122Z,11.00
2019-03-16T20:27:45.262Z,11.00
2019-03-16T20:30:34.478Z,10.90
2019-03-16T20:33:23.715Z,10.90
2019-03-16T20:36:13.260Z,10.90
2019-03-16T20:39:02.425Z,10.90
2019-03-16T20:41:52.137Z,10.90
2019-03-16T20:44:41.757Z,10.80
2019-03-16T20:47:31.627Z,10.80
2019-03-16T20:50:02.312Z,10.80
2019-03-16T20:52:51.085Z,10.80
2019-03-16T20:55:42.333Z,10.80
2019-03-16T20:58:31.860Z,10.80
2019-03-16T21:01:21.294Z,10.90
2019-03-16T21:04:09.885Z,10.80
2019-03-16T21:06:59.054Z,10.80
2019-03-16T21:09:48.389Z,10.80
2019-03-16T21:12:37.878Z,10.80
2019-03-16T21:15:26.707Z,10.80
2019-03-16T21:18:16.475Z,10.90
2019-03-16T21:21:06.570Z,10.80
2019-03-16T21:23:55.456Z,10.80
2019-03-16T21:26:52.599Z,10.90
2019-03-16T21:29:35.203Z,10.90
2019-03-16T21:32:24.645Z,10.90
2019-03-16T21:35:14.094Z,10.90
2019-03-16T21:38:03.762Z,10.80
2019-03-16T21:40:53.286Z,10.90
2019-03-16T21:43:42.192Z,10.90
2019-03-16T21:46:30.712Z,10.90
2019-03-16T21:49:20.915Z,10.90
2019-03-16T21:52:10.298Z,11.00
2019-03-16T21:54:59.312Z,11.00
2019-03-16T21:57:48.851Z,11.00
2019-03-16T22:00:38.133Z,11.00
2019-03-16T22:03:27.469Z,11.00
2019-03-16T22:06:16.516Z,11.00
2019-03-16T22:09:07.785Z,11.00
2019-03-16T22:11:56.545Z,11.00
2019-03-16T22:14:45.832Z,11.00
2019-03-16T22:17:34.428Z,11.00
2019-03-16T22:20:24.026Z,11.10
2019-03-16T22:23:13.514Z,11.10
2019-03-16T22:26:02.998Z,11.10
2019-03-16T22:28:52.811Z,11.10
2019-03-16T22:31:41.863Z,11.10
2019-03-16T22:34:31.449Z,11.10
2019-03-16T22:37:20.115Z,11.20
2019-03-16T22:39:50.858Z,11.20
2019-03-16T22:42:40.334Z,11.20
2019-03-16T22:45:29.150Z,11.20
2019-03-16T22:48:20.559Z,11.20
2019-03-16T22:51:09.065Z,11.20
2019-03-16T22:53:58.415Z,11.30
2019-03-16T22:56:47.532Z,11.30
2019-03-16T22:59:36.421Z,11.30
2019-03-16T23:02:25.906Z,10.90
2019-03-16T23:05:15.084Z,11.30
2019-03-16T23:08:03.927Z,11.40
2019-03-16T23:10:52.549Z,11.40
2019-03-16T23:13:41.470Z,11.40
2019-03-16T23:16:30.614Z,11.40
2019-03-16T23:19:19.377Z,11.40
2019-03-16T23:22:08.689Z,11.50
2019-03-16T23:24:57.797Z,11.40
2019-03-16T23:27:47.302Z,11.40
2019-03-16T23:30:36.649Z,11.40
2019-03-16T23:33:26.468Z,11.40
2019-03-16T23:36:15.471Z,11.50
2019-03-16T23:39:05.196Z,11.40
2019-03-16T23:41:54.541Z,11.20
2019-03-16T23:44:43.466Z,11.50
2019-03-16T23:47:32.380Z,11.50
2019-03-16T23:50:21.427Z,11.50
2019-03-16T23:53:10.537Z,11.50
2019-03-16T23:55:59.679Z,11.50
2019-03-16T23:58:48.648Z,11.50
